Weather History for KCMY - August, 2013

Change the Weather History Date:

Sunday, August 4, 2013

  Actual Average Record
Temperature  
Mean Temperature 58 °F -  
Max Temperature 75 °F 82 °F 100 °F (1988)
Min Temperature 41 °F 55 °F 41 °F (1971)
Degree Days  
Heating Degree Days 7    
Growing Degree Days 8 (Base 50)    
Moisture  
Dew Point 48 °F    
Average Humidity 74    
Maximum Humidity 100    
Minimum Humidity 36    
Precipitation  
Precipitation 0.00 in - - ()
Sea Level Pressure  
Sea Level Pressure 30.19 in    
Wind  
Wind Speed 1 mph (SSW)    
Max Wind Speed 6 mph    
Max Gust Speed -    
Visibility 10 miles    
Events      
Averages and records for this station are not official NWS values.
T = Trace of Precipitation, MM = Missing Value Source: NWS Daily Summary

Daily Weather History Graph

Daily Weather History Graph

Search for Another Location

Airport or City:

Trip Planner

Search our weather history database for the weather conditions in past years. The results will help you decide how hot, cold, wet, or windy it might be!

Date:

Astronomy

Aug. 04, 2013 Rise Set
Actual Time 5:54 AM CDT 8:22 PM CDT
Civil Twilight 5:22 AM CDT 8:54 PM CDT
Nautical Twilight 4:41 AM CDT 9:35 PM CDT
Astronomical Twilight 3:55 AM CDT 10:20 PM CDT
Moon 3:55 AM CDT (8/4) 6:45 PM CDT (8/4)
Length of Visible Light 15h 32m
Length of Day
14h 27m
Waning Crescent, 4% of the Moon is Illuminated
Aug 4
Waning Crescent
Aug 6
New
Aug 14
First Quarter
Aug 20
Full
Aug 28
Last Quarter

Hourly Weather History & Observations

Time (CDT) Temp. Dew Point Humidity Pressure Visibility Wind Dir Wind Speed Gust Speed Precip Events Conditions
12:15 AM 48.2 °F 47.1 °F 96% 30.19 in 10.0 mi Calm Calm - N/A   Unknown
12:35 AM 47.5 °F 45.1 °F 92% 30.20 in 10.0 mi Calm Calm - N/A   Unknown
12:55 AM 46.9 °F 45.0 °F 93% 30.20 in 10.0 mi Calm Calm - N/A   Unknown
1:15 AM 47.1 °F 45.1 °F 93% 30.20 in 10.0 mi Calm Calm - N/A   Unknown
1:35 AM 45.9 °F 45.0 °F 97% 30.22 in 10.0 mi Calm Calm - N/A   Unknown
1:55 AM 45.0 °F 43.9 °F 96% 30.22 in 10.0 mi Calm Calm - N/A   Unknown
2:15 AM 45.5 °F 44.1 °F 95% 30.22 in 10.0 mi Calm Calm - N/A   Unknown
2:35 AM 44.8 °F 43.0 °F 93% 30.22 in 10.0 mi Calm Calm - N/A   Unknown
2:55 AM 44.1 °F 43.0 °F 96% 30.22 in 10.0 mi Calm Calm - N/A   Unknown
3:15 AM 44.1 °F 42.8 °F 95% 30.23 in 10.0 mi Calm Calm - N/A   Unknown
3:35 AM 43.0 °F 41.9 °F 96% 30.22 in 10.0 mi Calm Calm - N/A   Unknown
3:55 AM 43.3 °F 42.4 °F 97% 30.22 in 10.0 mi Calm Calm - N/A   Unknown
4:15 AM 42.4 °F 41.5 °F 97% 30.21 in 10.0 mi Calm Calm - N/A   Unknown
4:35 AM 42.3 °F 41.5 °F 97% 30.22 in 10.0 mi Calm Calm - N/A   Unknown
4:55 AM 41.9 °F 40.8 °F 96% 30.21 in 10.0 mi Calm Calm - N/A   Unknown
5:15 AM 41.4 °F 40.3 °F 96% 30.21 in 10.0 mi Calm Calm - N/A   Unknown
5:35 AM 41.5 °F 40.6 °F 97% 30.22 in 10.0 mi Calm Calm - N/A   Unknown
5:55 AM 41.4 °F 40.3 °F 96% 30.22 in 10.0 mi Calm Calm - N/A   Unknown
6:15 AM 41.9 °F 41.0 °F 97% 30.22 in 10.0 mi Calm Calm - N/A   Unknown
6:35 AM 43.0 °F 41.4 °F 94% 30.22 in 10.0 mi Calm Calm - N/A   Unknown
6:55 AM 45.7 °F 43.0 °F 90% 30.23 in 10.0 mi Calm Calm - N/A   Unknown
7:15 AM 48.9 °F 46.0 °F 90% 30.25 in 10.0 mi Calm Calm - N/A   Unknown
7:35 AM 52.3 °F 48.2 °F 86% 30.25 in 10.0 mi Calm Calm - N/A   Unknown
7:55 AM 55.6 °F 49.6 °F 80% 30.24 in 10.0 mi Calm Calm - N/A   Unknown
8:15 AM 59.2 °F 50.5 °F 73% 30.24 in 10.0 mi Calm Calm - N/A   Unknown
8:35 AM 61.9 °F 51.4 °F 69% 30.25 in 10.0 mi Calm Calm - N/A   Unknown
8:55 AM 64.0 °F 52.0 °F 65% 30.25 in 10.0 mi Calm Calm - N/A   Unknown
9:35 AM 67.1 °F 53.2 °F 61% 30.25 in 10.0 mi ESE 3.5 mph - N/A   Unknown
9:55 AM 69.1 °F 53.6 °F 58% 30.25 in 10.0 mi Calm Calm - N/A   Unknown
10:15 AM 70.7 °F 53.2 °F 54% 30.25 in 10.0 mi SSE 4.6 mph - N/A   Unknown
10:35 AM 71.2 °F 51.6 °F 50% 30.24 in 10.0 mi Calm Calm - N/A   Unknown
10:55 AM 71.8 °F 52.5 °F 51% 30.24 in 10.0 mi Calm Calm - N/A   Unknown
11:15 AM 73.6 °F 51.3 °F 45% 30.23 in 10.0 mi ENE 3.5 mph - N/A   Unknown
11:35 AM 71.4 °F 50.4 °F 47% 30.23 in 10.0 mi Calm Calm - N/A   Unknown
12:15 PM 71.6 °F 48.2 °F 43% 30.20 in 10.0 mi Calm Calm - N/A   Unknown
12:35 PM 72.0 °F 49.5 °F 45% 30.20 in 10.0 mi Calm Calm - N/A   Unknown
12:55 PM 73.4 °F 48.2 °F 41% 30.20 in 10.0 mi ESE 5.8 mph - N/A   Unknown
1:15 PM 74.3 °F 49.3 °F 41% 30.19 in 10.0 mi ESE 5.8 mph - N/A   Unknown
1:55 PM 73.6 °F 48.6 °F 41% 30.18 in 10.0 mi SE 3.5 mph - N/A   Unknown
2:35 PM 73.4 °F 48.2 °F 41% 30.18 in 10.0 mi Calm Calm - N/A   Unknown
2:55 PM 71.6 °F 48.2 °F 43% 30.19 in 10.0 mi Calm Calm - N/A   Unknown
3:15 PM 71.6 °F 48.0 °F 43% 30.18 in 10.0 mi NNW 4.6 mph - N/A   Unknown
3:55 PM 72.9 °F 46.6 °F 39% 30.18 in 10.0 mi NW 3.5 mph - N/A   Unknown
4:15 PM 75.2 °F 46.4 °F 36% 30.18 in 10.0 mi WNW 5.8 mph - N/A   Unknown
4:35 PM 73.4 °F 46.4 °F 38% 30.16 in 10.0 mi West 5.8 mph - N/A   Unknown
5:55 PM 72.0 °F 48.7 °F 44% 30.15 in 10.0 mi Calm Calm - N/A   Unknown
6:15 PM 72.5 °F 49.8 °F 45% 30.14 in 10.0 mi WSW 3.5 mph - N/A   Unknown
7:15 PM 69.4 °F 51.8 °F 53% 30.13 in 10.0 mi Calm Calm - N/A   Unknown
7:35 PM 68.0 °F 51.8 °F 56% 30.13 in 10.0 mi WSW 3.5 mph - N/A   Unknown
7:55 PM 66.2 °F 53.6 °F 64% 30.12 in 10.0 mi Calm Calm - N/A   Unknown
8:15 PM 66.0 °F 55.4 °F 69% 30.12 in 10.0 mi Calm Calm - N/A   Unknown
8:35 PM 64.2 °F 54.1 °F 70% 30.12 in 10.0 mi Calm Calm - N/A   Unknown
9:15 PM 60.8 °F 55.4 °F 82% 30.12 in 10.0 mi Calm Calm - N/A   Unknown
9:35 PM 57.2 °F 55.4 °F 94% 30.12 in 10.0 mi Calm Calm - N/A   Unknown
9:55 PM 57.2 °F 55.4 °F 94% 30.12 in 10.0 mi Calm Calm - N/A   Unknown
10:15 PM 55.4 °F 53.6 °F 94% 30.12 in 10.0 mi Calm Calm - N/A   Unknown
10:35 PM 55.4 °F 55.4 °F 100% 30.11 in 10.0 mi Calm Calm - N/A   Unknown
10:55 PM 53.6 °F 53.6 °F 100% 30.11 in 10.0 mi Calm Calm - N/A   Unknown
11:16 PM 53.6 °F 51.8 °F 94% 30.11 in 10.0 mi Calm Calm - N/A   Unknown
11:35 PM 51.8 °F 51.8 °F 100% 30.11 in 10.0 mi Calm Calm - N/A   Unknown
11:55 PM 50.9 °F 50.0 °F 97% 30.11 in 10.0 mi Calm Calm - N/A   Unknown